createdAt,value
2023-04-07T00:00:16.938Z,-1.39
2023-04-07T00:03:08.138Z,-1.40
2023-04-07T00:05:38.377Z,-1.41
2023-04-07T00:08:07.740Z,-1.43
2023-04-07T00:10:36.702Z,-1.45
2023-04-07T00:13:06.098Z,-1.47
2023-04-07T00:15:35.008Z,-1.47
2023-04-07T00:18:04.715Z,-1.47
2023-04-07T00:20:34.525Z,-1.47
2023-04-07T00:23:04.129Z,-1.47
2023-04-07T00:25:34.072Z,-1.46
2023-04-07T00:28:03.345Z,-1.44
2023-04-07T00:30:34.887Z,-1.44
2023-04-07T00:33:05.017Z,-1.44
2023-04-07T00:35:40.285Z,-1.43
2023-04-07T00:38:09.448Z,-1.42
2023-04-07T00:40:39.454Z,-1.42
2023-04-07T00:43:08.594Z,-1.42
2023-04-07T00:45:38.256Z,-1.44
2023-04-07T00:48:08.114Z,-1.43
2023-04-07T00:50:38.089Z,-1.42
2023-04-07T00:53:07.921Z,-1.43
2023-04-07T00:55:39.151Z,-1.43
2023-04-07T00:58:10.121Z,-1.44
2023-04-07T01:00:51.721Z,-1.45
2023-04-07T01:03:32.936Z,-1.48
2023-04-07T01:06:04.329Z,-1.49
2023-04-07T01:08:35.118Z,-1.49
2023-04-07T01:11:15.526Z,-1.49
2023-04-07T01:13:49.826Z,-1.48
2023-04-07T01:16:50.001Z,-1.48
2023-04-07T01:19:34.240Z,-1.47
2023-04-07T01:22:12.638Z,-1.46
2023-04-07T01:24:53.890Z,-1.46
2023-04-07T01:27:46.718Z,-1.45
2023-04-07T01:30:17.407Z,-1.44
2023-04-07T01:32:51.655Z,-1.44
2023-04-07T01:35:24.165Z,-1.44
2023-04-07T01:37:56.984Z,-1.44
2023-04-07T01:40:29.467Z,-1.43
2023-04-07T01:43:01.065Z,-1.42
2023-04-07T01:45:32.619Z,-1.41
2023-04-07T01:48:02.899Z,-1.40
2023-04-07T01:50:32.790Z,-1.41
2023-04-07T01:53:04.123Z,-1.42
2023-04-07T01:55:34.686Z,-1.43
2023-04-07T01:58:09.946Z,-1.43
2023-04-07T02:00:44.094Z,-1.42
2023-04-07T02:03:24.508Z,-1.40
2023-04-07T02:06:00.151Z,-1.39
2023-04-07T02:08:32.534Z,-1.38
2023-04-07T02:11:04.625Z,-1.36
2023-04-07T02:13:39.140Z,-1.35
2023-04-07T02:16:13.414Z,-1.33
2023-04-07T02:18:45.180Z,-1.33
2023-04-07T02:21:15.996Z,-1.30
2023-04-07T02:23:48.954Z,-1.29
2023-04-07T02:26:19.488Z,-1.28
2023-04-07T02:28:49.813Z,-1.27
2023-04-07T02:31:21.324Z,-1.28
2023-04-07T02:33:52.905Z,-1.26
2023-04-07T02:36:24.761Z,-1.27
2023-04-07T02:38:56.769Z,-1.25
2023-04-07T02:41:26.753Z,-1.26
2023-04-07T02:43:57.400Z,-1.27
2023-04-07T02:46:27.758Z,-1.26
2023-04-07T02:48:57.928Z,-1.27
2023-04-07T02:51:27.709Z,-1.29
2023-04-07T02:53:57.325Z,-1.29
2023-04-07T02:56:28.673Z,-1.28
2023-04-07T02:58:59.965Z,-1.27
2023-04-07T03:01:30.796Z,-1.28
2023-04-07T03:04:01.176Z,-1.28
2023-04-07T03:06:30.924Z,-1.27
2023-04-07T03:09:08.092Z,-1.28
2023-04-07T03:11:39.142Z,-1.27
2023-04-07T03:14:09.234Z,-1.26
2023-04-07T03:16:46.478Z,-1.26
2023-04-07T03:19:17.279Z,-1.29
2023-04-07T03:21:49.328Z,-1.33
2023-04-07T03:24:18.716Z,-1.34
2023-04-07T03:26:49.019Z,-1.37
2023-04-07T03:29:28.311Z,-1.37
2023-04-07T03:31:57.637Z,-1.37
2023-04-07T03:34:27.112Z,-1.38
2023-04-07T03:37:00.039Z,-1.41
2023-04-07T03:39:30.497Z,-1.42
2023-04-07T03:42:01.433Z,-1.43
2023-04-07T03:44:34.433Z,-1.47
2023-04-07T03:47:04.185Z,-1.49
2023-04-07T03:49:35.351Z,-1.51
2023-04-07T03:52:05.550Z,-1.54
2023-04-07T03:54:36.430Z,-1.56
2023-04-07T03:57:06.244Z,-1.57
2023-04-07T03:59:39.530Z,-1.58
2023-04-07T04:02:09.027Z,-1.60
2023-04-07T04:04:39.948Z,-1.60
2023-04-07T04:07:09.931Z,-1.61
2023-04-07T04:09:47.117Z,-1.62
2023-04-07T04:12:17.181Z,-1.60
2023-04-07T04:14:53.795Z,-1.57
2023-04-07T04:17:23.494Z,-1.54
2023-04-07T04:19:52.912Z,-1.49
2023-04-07T04:22:38.477Z,-1.45
2023-04-07T04:25:08.596Z,-1.40
2023-04-07T04:27:38.294Z,-1.37
2023-04-07T04:30:13.045Z,-1.34
2023-04-07T04:32:52.706Z,-1.28
2023-04-07T04:35:26.466Z,-1.25
2023-04-07T04:38:05.121Z,-1.21
2023-04-07T04:40:34.427Z,-1.15
2023-04-07T04:43:07.488Z,-1.09
2023-04-07T04:45:37.606Z,-1.01
2023-04-07T04:48:06.802Z,-0.95
2023-04-07T04:50:36.706Z,-0.89
2023-04-07T04:53:08.464Z,-0.84
2023-04-07T04:55:41.267Z,-0.77
2023-04-07T04:58:10.649Z,-0.73
2023-04-07T05:00:46.766Z,-0.66
2023-04-07T05:03:15.614Z,-0.57
2023-04-07T05:05:47.974Z,-0.48
2023-04-07T05:08:16.870Z,-0.40
2023-04-07T05:10:47.731Z,-0.32
2023-04-07T05:13:18.128Z,-0.25
2023-04-07T05:15:47.559Z,-0.18
2023-04-07T05:18:16.208Z,-0.17
2023-04-07T05:20:45.093Z,-0.13
2023-04-07T05:23:14.201Z,-0.09
2023-04-07T05:25:44.115Z,0.01
2023-04-07T05:28:12.901Z,0.09
2023-04-07T05:30:41.784Z,0.19
2023-04-07T05:33:10.674Z,0.23
2023-04-07T05:35:50.765Z,0.29
2023-04-07T05:38:19.717Z,0.33
2023-04-07T05:40:48.737Z,0.40
2023-04-07T05:43:24.160Z,0.47
2023-04-07T05:45:52.797Z,0.52
2023-04-07T05:48:22.763Z,0.54
2023-04-07T05:50:51.747Z,0.61
2023-04-07T05:53:20.432Z,0.60
2023-04-07T05:55:49.226Z,0.67
2023-04-07T05:58:26.098Z,0.64
2023-04-07T06:00:56.422Z,0.69
2023-04-07T06:03:25.032Z,0.72
2023-04-07T06:05:59.536Z,0.77
2023-04-07T06:08:28.425Z,0.82
2023-04-07T06:10:57.815Z,0.82
2023-04-07T06:13:26.619Z,0.85
2023-04-07T06:15:56.629Z,0.90
2023-04-07T06:18:25.323Z,0.93
2023-04-07T06:20:53.797Z,0.93
2023-04-07T06:23:22.478Z,0.97
2023-04-07T06:25:53.392Z,0.92
2023-04-07T06:28:22.105Z,0.93
2023-04-07T06:30:51.819Z,1.04
2023-04-07T06:33:25.919Z,1.10
2023-04-07T06:35:54.407Z,1.18
2023-04-07T06:38:23.088Z,1.25
2023-04-07T06:40:52.395Z,1.43
2023-04-07T06:43:20.975Z,1.50
2023-04-07T06:45:57.394Z,1.47
2023-04-07T06:48:26.137Z,1.50
2023-04-07T06:50:54.710Z,1.53
2023-04-07T06:53:23.785Z,1.65
2023-04-07T06:55:52.494Z,1.67
2023-04-07T06:58:21.072Z,1.73
2023-04-07T07:00:49.554Z,1.87
2023-04-07T07:03:18.348Z,2.05
2023-04-07T07:05:48.526Z,2.14
2023-04-07T07:08:18.897Z,2.23
2023-04-07T07:10:47.676Z,2.22
2023-04-07T07:13:16.360Z,2.22
2023-04-07T07:15:45.054Z,2.21
2023-04-07T07:18:13.632Z,2.36
2023-04-07T07:20:42.309Z,2.40
2023-04-07T07:23:10.694Z,2.37
2023-04-07T07:25:39.179Z,2.37
2023-04-07T07:28:07.964Z,2.48
2023-04-07T07:30:36.747Z,2.55
2023-04-07T07:33:06.044Z,2.67
2023-04-07T07:35:34.838Z,2.80
2023-04-07T07:38:03.216Z,2.81
2023-04-07T07:40:31.602Z,2.79
2023-04-07T07:43:02.949Z,2.88
2023-04-07T07:45:31.527Z,2.90
2023-04-07T07:48:01.291Z,2.95
2023-04-07T07:50:30.220Z,3.20
2023-04-07T07:52:58.703Z,3.43
2023-04-07T07:55:27.118Z,3.43
2023-04-07T07:57:55.988Z,3.34
2023-04-07T08:00:24.583Z,3.38
2023-04-07T08:02:53.609Z,3.41
2023-04-07T08:05:22.134Z,3.55
2023-04-07T08:07:53.520Z,3.36
2023-04-07T08:10:25.355Z,3.45
2023-04-07T08:12:53.935Z,3.67
2023-04-07T08:15:22.613Z,3.45
2023-04-07T08:17:51.028Z,3.66
2023-04-07T08:20:19.977Z,3.95
2023-04-07T08:22:48.867Z,3.98
2023-04-07T08:25:17.359Z,3.82
2023-04-07T08:27:46.138Z,3.71
2023-04-07T08:30:15.132Z,3.76
2023-04-07T08:32:44.689Z,3.60
2023-04-07T08:35:13.374Z,3.81
2023-04-07T08:37:43.852Z,3.98
2023-04-07T08:40:13.758Z,4.07
2023-04-07T08:42:44.194Z,4.12
2023-04-07T08:45:13.283Z,4.34
2023-04-07T08:47:42.295Z,4.61
2023-04-07T08:50:12.333Z,4.71
2023-04-07T08:52:41.606Z,4.80
2023-04-07T08:55:10.485Z,4.95
2023-04-07T08:57:39.578Z,5.07
2023-04-07T09:00:08.216Z,4.91
2023-04-07T09:02:39.402Z,4.60
2023-04-07T09:05:09.456Z,4.89
2023-04-07T09:07:40.571Z,5.18
2023-04-07T09:10:10.187Z,5.50
2023-04-07T09:12:39.268Z,5.79
2023-04-07T09:15:08.158Z,6.08
2023-04-07T09:17:36.679Z,6.18
2023-04-07T09:20:05.952Z,5.88
2023-04-07T09:22:35.343Z,5.93
2023-04-07T09:25:14.603Z,6.37
2023-04-07T09:27:54.678Z,6.52
2023-04-07T09:30:23.630Z,6.70
2023-04-07T09:32:52.346Z,6.81
2023-04-07T09:35:23.417Z,6.71
2023-04-07T09:38:02.717Z,6.79
2023-04-07T09:40:31.570Z,6.56
2023-04-07T09:43:00.468Z,6.30
2023-04-07T09:48:05.816Z,6.16
2023-04-07T09:50:35.480Z,6.24
2023-04-07T09:53:05.146Z,6.27
2023-04-07T09:55:34.437Z,6.19
2023-04-07T09:58:04.049Z,6.14
2023-04-07T10:00:32.830Z,6.22
2023-04-07T10:03:02.345Z,6.08
2023-04-07T10:05:31.816Z,6.28
2023-04-07T10:08:02.332Z,6.50
2023-04-07T10:10:32.117Z,6.44
2023-04-07T10:13:00.674Z,6.34
2023-04-07T10:15:30.922Z,6.29
2023-04-07T10:18:00.345Z,5.78
2023-04-07T10:20:29.699Z,5.81
2023-04-07T10:23:04.852Z,5.87
2023-04-07T10:25:33.414Z,5.82
2023-04-07T10:28:06.300Z,5.79
2023-04-07T10:30:35.512Z,5.94
2023-04-07T10:33:04.213Z,6.04
2023-04-07T10:35:51.732Z,5.84
2023-04-07T10:38:21.500Z,5.83
2023-04-07T10:40:50.305Z,5.48
2023-04-07T10:43:37.414Z,5.55
2023-04-07T10:46:06.153Z,5.70
2023-04-07T10:48:34.692Z,5.61
2023-04-07T10:51:06.456Z,5.46
2023-04-07T10:53:38.717Z,5.41
2023-04-07T10:56:07.410Z,5.29
2023-04-07T10:58:36.293Z,5.21
2023-04-07T11:01:07.863Z,5.14
2023-04-07T11:03:37.996Z,5.04
2023-04-07T11:06:13.620Z,5.10
2023-04-07T11:08:43.439Z,5.19
2023-04-07T11:11:12.930Z,5.14
2023-04-07T11:13:46.929Z,5.27
2023-04-07T11:16:16.809Z,5.40
2023-04-07T11:18:46.663Z,5.48
2023-04-07T11:21:19.360Z,5.50
2023-04-07T11:23:48.622Z,5.75
2023-04-07T11:26:17.947Z,5.92
2023-04-07T11:28:51.683Z,6.06
2023-04-07T11:31:23.816Z,6.12
2023-04-07T11:33:56.585Z,6.29
2023-04-07T11:36:32.659Z,6.38
2023-04-07T11:39:02.573Z,6.57
2023-04-07T11:41:33.036Z,6.72
2023-04-07T11:44:05.369Z,6.67
2023-04-07T11:46:33.988Z,6.48
2023-04-07T11:49:10.011Z,6.10
2023-04-07T11:51:38.593Z,5.89
2023-04-07T11:54:07.285Z,5.80
2023-04-07T11:56:46.208Z,5.68
2023-04-07T11:59:33.239Z,5.57
2023-04-07T12:02:02.409Z,5.48
2023-04-07T12:04:31.826Z,5.55
2023-04-07T12:07:11.051Z,5.56
2023-04-07T12:09:40.463Z,5.66
2023-04-07T12:12:10.375Z,5.71
2023-04-07T12:14:38.949Z,5.67
2023-04-07T12:17:09.683Z,5.78
2023-04-07T12:19:39.859Z,5.88
2023-04-07T12:22:08.286Z,5.93
2023-04-07T12:24:37.175Z,6.06
2023-04-07T12:27:05.867Z,5.98
2023-04-07T12:29:34.859Z,6.09
2023-04-07T12:32:04.096Z,6.08
2023-04-07T12:34:32.644Z,6.48
2023-04-07T12:37:01.582Z,6.79
2023-04-07T12:39:30.073Z,6.94
2023-04-07T12:41:58.533Z,7.14
2023-04-07T12:44:26.873Z,7.27
2023-04-07T12:46:55.246Z,7.13
2023-04-07T12:49:24.029Z,6.78
2023-04-07T12:51:53.124Z,6.55
2023-04-07T12:54:22.266Z,5.97
2023-04-07T12:56:50.908Z,5.85
2023-04-07T12:59:19.489Z,6.03
2023-04-07T13:01:50.648Z,6.13
2023-04-07T13:04:20.021Z,6.16
2023-04-07T13:06:48.617Z,6.14
2023-04-07T13:09:17.299Z,6.20
2023-04-07T13:11:47.274Z,6.17
2023-04-07T13:14:15.673Z,5.78
2023-04-07T13:16:45.210Z,5.45
2023-04-07T13:19:14.395Z,5.49
2023-04-07T13:21:46.747Z,5.26
2023-04-07T13:24:16.815Z,5.12
2023-04-07T13:26:45.284Z,4.88
2023-04-07T13:29:13.742Z,4.84
2023-04-07T13:31:42.537Z,4.96
2023-04-07T13:34:11.017Z,5.05
2023-04-07T13:36:41.034Z,5.05
2023-04-07T13:39:09.817Z,5.06
2023-04-07T13:41:38.197Z,5.03
2023-04-07T13:44:06.987Z,5.00
2023-04-07T13:46:35.537Z,4.85
2023-04-07T13:49:04.048Z,4.83
2023-04-07T13:51:33.252Z,4.94
2023-04-07T13:54:01.832Z,5.13
2023-04-07T13:56:31.274Z,5.07
2023-04-07T13:59:00.138Z,4.97
2023-04-07T14:01:29.173Z,5.03
2023-04-07T14:04:00.735Z,5.08
2023-04-07T14:06:29.657Z,4.99
2023-04-07T14:08:58.557Z,5.01
2023-04-07T14:11:27.470Z,5.07
2023-04-07T14:13:57.308Z,4.96
2023-04-07T14:16:25.945Z,4.84
2023-04-07T14:18:54.522Z,4.72
2023-04-07T14:21:23.452Z,4.66
2023-04-07T14:23:52.592Z,4.68
2023-04-07T14:26:21.810Z,4.66
2023-04-07T14:28:50.286Z,4.36
2023-04-07T14:31:19.226Z,4.44
2023-04-07T14:33:48.180Z,4.54
2023-04-07T14:36:19.935Z,4.55
2023-04-07T14:38:50.929Z,4.59
2023-04-07T14:41:20.485Z,4.63
2023-04-07T14:43:53.666Z,4.57
2023-04-07T14:46:25.670Z,4.54
2023-04-07T14:48:54.221Z,4.47
2023-04-07T14:51:22.893Z,4.27
2023-04-07T14:53:56.282Z,4.38
2023-04-07T14:56:25.304Z,4.42
2023-04-07T14:58:53.879Z,4.54
2023-04-07T15:01:22.991Z,4.56
2023-04-07T15:03:53.150Z,4.49
2023-04-07T15:06:22.399Z,4.56
2023-04-07T15:08:50.865Z,4.52
2023-04-07T15:11:19.347Z,4.36
2023-04-07T15:13:48.291Z,4.25
2023-04-07T15:16:17.256Z,4.22
2023-04-07T15:18:47.456Z,4.26
2023-04-07T15:21:16.350Z,4.16
2023-04-07T15:23:46.194Z,4.15
2023-04-07T15:26:14.552Z,4.02
2023-04-07T15:28:42.982Z,3.95
2023-04-07T15:31:11.410Z,3.93
2023-04-07T15:33:40.802Z,3.97
2023-04-07T15:36:09.715Z,4.05
2023-04-07T15:38:39.576Z,4.14
2023-04-07T15:41:08.393Z,4.20
2023-04-07T15:43:38.090Z,4.15
2023-04-07T15:46:06.678Z,4.14
2023-04-07T15:48:35.062Z,4.16
2023-04-07T15:51:03.756Z,4.17
2023-04-07T15:53:32.217Z,4.17
2023-04-07T15:56:00.938Z,4.16
2023-04-07T15:58:29.690Z,4.13
2023-04-07T16:00:59.210Z,4.07
2023-04-07T16:03:28.493Z,3.99
2023-04-07T16:05:57.388Z,3.91
2023-04-07T16:08:25.907Z,3.84
2023-04-07T16:10:54.356Z,3.76
2023-04-07T16:13:22.625Z,3.68
2023-04-07T16:15:55.405Z,3.62
2023-04-07T16:18:23.781Z,3.55
2023-04-07T16:20:52.298Z,3.50
2023-04-07T16:23:21.355Z,3.47
2023-04-07T16:25:49.747Z,3.44
2023-04-07T16:28:18.121Z,3.43
2023-04-07T16:30:46.810Z,3.42
2023-04-07T16:33:15.300Z,3.38
2023-04-07T16:35:43.810Z,3.34
2023-04-07T16:38:12.672Z,3.31
2023-04-07T16:40:44.074Z,3.28
2023-04-07T16:43:16.857Z,3.25
2023-04-07T16:45:49.790Z,3.22
2023-04-07T16:48:18.663Z,3.18
2023-04-07T16:50:47.346Z,3.13
2023-04-07T16:53:15.576Z,3.08
2023-04-07T16:55:44.000Z,3.02
2023-04-07T16:58:12.483Z,2.99
2023-04-07T17:00:41.376Z,2.96
2023-04-07T17:03:10.129Z,2.91
2023-04-07T17:05:39.151Z,2.88
2023-04-07T17:08:07.525Z,2.85
2023-04-07T17:10:36.009Z,2.81
2023-04-07T17:13:04.391Z,2.76
2023-04-07T17:15:36.370Z,2.71
2023-04-07T17:18:04.904Z,2.66
2023-04-07T17:20:33.825Z,2.61
2023-04-07T17:23:02.609Z,2.55
2023-04-07T17:25:31.322Z,2.51
2023-04-07T17:27:59.974Z,2.47
2023-04-07T17:30:28.708Z,2.43
2023-04-07T17:32:57.103Z,2.36
2023-04-07T17:35:25.569Z,2.29
2023-04-07T17:37:54.102Z,2.24
2023-04-07T17:40:22.896Z,2.20
2023-04-07T17:42:51.373Z,2.19
2023-04-07T17:45:19.858Z,2.16
2023-04-07T17:47:48.773Z,2.15
2023-04-07T17:50:17.616Z,2.14
2023-04-07T17:52:46.421Z,2.12
2023-04-07T17:55:14.815Z,2.09
2023-04-07T17:57:43.391Z,2.07
2023-04-07T18:00:12.274Z,2.06
2023-04-07T18:02:43.870Z,2.05
2023-04-07T18:05:13.151Z,2.05
2023-04-07T18:07:41.505Z,2.07
2023-04-07T18:10:10.603Z,2.07
2023-04-07T18:12:39.290Z,2.07
2023-04-07T18:15:08.176Z,2.09
2023-04-07T18:17:36.953Z,2.09
2023-04-07T18:20:06.026Z,2.10
2023-04-07T18:22:34.731Z,2.08
2023-04-07T18:25:03.205Z,2.05
2023-04-07T18:27:31.486Z,2.00
2023-04-07T18:29:59.737Z,1.97
2023-04-07T18:32:28.411Z,1.97
2023-04-07T18:34:57.222Z,1.98
2023-04-07T18:37:25.593Z,1.99
2023-04-07T18:39:54.605Z,2.00
2023-04-07T18:42:23.274Z,2.00
2023-04-07T18:44:51.924Z,2.01
2023-04-07T18:47:20.406Z,2.01
2023-04-07T18:49:48.747Z,2.01
2023-04-07T18:52:17.667Z,2.00
2023-04-07T18:54:45.976Z,1.98
2023-04-07T18:57:14.204Z,1.97
2023-04-07T18:59:43.910Z,1.92
2023-04-07T19:02:12.470Z,1.90
2023-04-07T19:04:41.501Z,1.88
2023-04-07T19:07:09.937Z,1.87
2023-04-07T19:09:38.188Z,1.88
2023-04-07T19:12:10.164Z,1.87
2023-04-07T19:14:38.768Z,1.88
2023-04-07T19:17:07.159Z,1.89
2023-04-07T19:19:35.856Z,1.88
2023-04-07T19:22:04.211Z,1.86
2023-04-07T19:24:32.579Z,1.84
2023-04-07T19:27:00.882Z,1.83
2023-04-07T19:29:29.562Z,1.83
2023-04-07T19:31:57.961Z,1.83
2023-04-07T19:34:26.348Z,1.84
2023-04-07T19:36:54.698Z,1.85
2023-04-07T19:39:23.276Z,1.85
2023-04-07T19:41:51.774Z,1.84
2023-04-07T19:44:20.251Z,1.82
2023-04-07T19:46:49.131Z,1.79
2023-04-07T19:49:17.508Z,1.75
2023-04-07T19:51:47.031Z,1.74
2023-04-07T19:54:15.395Z,1.74
2023-04-07T19:56:43.783Z,1.73
2023-04-07T19:59:12.325Z,1.71
2023-04-07T20:01:40.760Z,1.71
2023-04-07T20:04:09.265Z,1.71
2023-04-07T20:06:40.126Z,1.73
2023-04-07T20:09:08.386Z,1.72
2023-04-07T20:11:36.825Z,1.73
2023-04-07T20:14:05.304Z,1.72
2023-04-07T20:16:33.575Z,1.69
2023-04-07T20:19:03.433Z,1.67
2023-04-07T20:21:32.586Z,1.64
2023-04-07T20:24:01.065Z,1.64
2023-04-07T20:26:29.538Z,1.64
2023-04-07T20:28:57.841Z,1.64
2023-04-07T20:31:26.383Z,1.64
2023-04-07T20:33:54.816Z,1.65
2023-04-07T20:36:23.355Z,1.64
2023-04-07T20:38:52.054Z,1.65
2023-04-07T20:41:25.572Z,1.64
2023-04-07T20:43:55.455Z,1.63
2023-04-07T20:46:24.073Z,1.63
2023-04-07T20:48:53.179Z,1.60
2023-04-07T20:51:22.411Z,1.59
2023-04-07T20:53:51.081Z,1.59
2023-04-07T20:56:19.812Z,1.58
2023-04-07T20:58:48.719Z,1.57
2023-04-07T21:01:17.416Z,1.56
2023-04-07T21:03:46.393Z,1.55
2023-04-07T21:06:15.101Z,1.53
2023-04-07T21:08:43.645Z,1.52
2023-04-07T21:11:11.983Z,1.50
2023-04-07T21:13:40.578Z,1.50
2023-04-07T21:16:09.021Z,1.51
2023-04-07T21:18:37.776Z,1.52
2023-04-07T21:21:08.508Z,1.52
2023-04-07T21:23:36.925Z,1.53
2023-04-07T21:26:05.883Z,1.54
2023-04-07T21:28:34.446Z,1.56
2023-04-07T21:31:04.074Z,1.56
2023-04-07T21:33:32.546Z,1.57
2023-04-07T21:36:01.748Z,1.57
2023-04-07T21:38:31.373Z,1.59
2023-04-07T21:40:59.970Z,1.60
2023-04-07T21:43:29.068Z,1.62
2023-04-07T21:45:57.448Z,1.64
2023-04-07T21:48:26.086Z,1.66
2023-04-07T21:50:54.586Z,1.68
2023-04-07T21:53:23.131Z,1.68
2023-04-07T21:55:52.560Z,1.69
2023-04-07T21:58:23.919Z,1.70
2023-04-07T22:00:52.707Z,1.68
2023-04-07T22:03:21.351Z,1.68
2023-04-07T22:05:49.964Z,1.68
2023-04-07T22:08:18.346Z,1.70
2023-04-07T22:10:46.982Z,1.69
2023-04-07T22:13:15.871Z,1.69
2023-04-07T22:15:44.356Z,1.70
2023-04-07T22:18:13.567Z,1.70
2023-04-07T22:20:42.194Z,1.69
2023-04-07T22:23:11.119Z,1.69
2023-04-07T22:25:39.627Z,1.69
2023-04-07T22:28:08.174Z,1.68
2023-04-07T22:30:36.889Z,1.71
2023-04-07T22:33:07.183Z,1.71
2023-04-07T22:35:36.125Z,1.71
2023-04-07T22:38:04.834Z,1.70
2023-04-07T22:40:34.122Z,1.71
2023-04-07T22:43:03.120Z,1.71
2023-04-07T22:45:32.131Z,1.72
2023-04-07T22:48:01.190Z,1.73
2023-04-07T22:50:30.056Z,1.75
2023-04-07T22:52:58.481Z,1.76
2023-04-07T22:55:27.626Z,1.76
2023-04-07T22:57:56.453Z,1.72
2023-04-07T23:00:25.010Z,1.65
2023-04-07T23:02:53.766Z,1.57
2023-04-07T23:05:23.544Z,1.52
2023-04-07T23:07:53.669Z,1.50
2023-04-07T23:10:22.542Z,1.52
2023-04-07T23:12:54.646Z,1.55
2023-04-07T23:15:23.268Z,1.56
2023-04-07T23:17:52.175Z,1.58
2023-04-07T23:20:21.097Z,1.60
2023-04-07T23:22:49.772Z,1.63
2023-04-07T23:25:18.626Z,1.65
2023-04-07T23:27:47.066Z,1.66
2023-04-07T23:30:15.939Z,1.66
2023-04-07T23:32:44.560Z,1.64
2023-04-07T23:35:13.597Z,1.62
2023-04-07T23:37:42.636Z,1.59
2023-04-07T23:40:12.020Z,1.57
2023-04-07T23:42:41.192Z,1.56
2023-04-07T23:45:10.942Z,1.57
2023-04-07T23:47:40.093Z,1.59
2023-04-07T23:50:09.295Z,1.61
2023-04-07T23:52:38.809Z,1.63
2023-04-07T23:55:07.677Z,1.66
2023-04-07T23:57:36.491Z,1.67
